createdAt,value
2018-05-27T00:01:33.922Z,97.80
2018-05-27T00:04:00.312Z,97.80
2018-05-27T00:06:27.284Z,98.00
2018-05-27T00:08:53.508Z,97.90
2018-05-27T00:11:20.511Z,98.00
2018-05-27T00:13:47.638Z,98.10
2018-05-27T00:16:14.628Z,98.20
2018-05-27T00:18:41.018Z,98.20
2018-05-27T00:21:07.244Z,98.20
2018-05-27T00:23:33.442Z,98.30
2018-05-27T00:26:00.878Z,98.30
2018-05-27T00:28:27.835Z,98.40
2018-05-27T00:30:54.168Z,98.30
2018-05-27T00:33:20.432Z,98.30
2018-05-27T00:35:47.386Z,98.20
2018-05-27T00:38:13.602Z,98.20
2018-05-27T00:40:39.844Z,98.20
2018-05-27T00:43:06.052Z,98.20
2018-05-27T00:45:32.282Z,98.20
2018-05-27T00:47:58.655Z,98.20
2018-05-27T00:50:24.879Z,98.30
2018-05-27T00:52:51.091Z,98.40
2018-05-27T00:55:17.513Z,98.40
2018-05-27T00:57:43.737Z,98.40
2018-05-27T01:00:09.955Z,98.40
2018-05-27T01:02:36.209Z,98.50
2018-05-27T01:05:02.478Z,98.60
2018-05-27T01:07:29.442Z,98.90
2018-05-27T01:09:55.706Z,98.90
2018-05-27T01:12:21.922Z,99.00
2018-05-27T01:14:48.155Z,99.00
2018-05-27T01:17:14.557Z,99.00
2018-05-27T01:19:40.785Z,99.20
2018-05-27T01:22:07.218Z,99.20
2018-05-27T01:24:33.482Z,99.20
2018-05-27T01:26:59.680Z,99.20
2018-05-27T01:29:25.967Z,99.30
2018-05-27T01:31:52.311Z,99.40
2018-05-27T01:34:18.527Z,99.50
2018-05-27T01:36:44.887Z,99.50
2018-05-27T01:39:11.117Z,99.60
2018-05-27T01:41:37.321Z,99.60
2018-05-27T01:44:03.540Z,99.60
2018-05-27T01:46:29.805Z,99.60
2018-05-27T01:48:56.027Z,99.60
2018-05-27T01:51:22.266Z,99.60
2018-05-27T01:53:48.524Z,99.60
2018-05-27T01:56:16.113Z,99.60
2018-05-27T01:58:42.333Z,99.60
2018-05-27T02:01:08.579Z,99.70
2018-05-27T02:03:34.775Z,99.70
2018-05-27T02:06:00.975Z,99.70
2018-05-27T02:08:27.197Z,99.80
2018-05-27T02:10:53.408Z,99.80
2018-05-27T02:13:19.641Z,99.70
2018-05-27T02:15:45.892Z,99.70
2018-05-27T02:18:12.096Z,99.70
2018-05-27T02:20:38.347Z,99.80
2018-05-27T02:23:04.623Z,99.90
2018-05-27T02:25:31.587Z,99.90
2018-05-27T02:27:58.542Z,99.90
2018-05-27T02:30:24.907Z,99.90
2018-05-27T02:32:51.153Z,99.90
2018-05-27T02:35:17.379Z,99.90
2018-05-27T02:37:44.214Z,99.90
2018-05-27T02:40:10.431Z,99.90
2018-05-27T02:42:36.662Z,99.80
2018-05-27T02:45:02.966Z,99.90
2018-05-27T02:47:29.183Z,99.90
2018-05-27T02:49:56.168Z,99.90
2018-05-27T02:52:22.408Z,99.90
2018-05-27T02:54:48.631Z,99.90
2018-05-27T02:57:15.024Z,99.90
2018-05-27T02:59:41.279Z,99.90
2018-05-27T03:02:07.494Z,99.90
2018-05-27T03:04:33.696Z,99.90
2018-05-27T03:07:00.686Z,99.90
2018-05-27T03:09:26.912Z,99.90
2018-05-27T03:11:53.146Z,99.90
2018-05-27T03:14:19.405Z,99.90
2018-05-27T03:16:45.642Z,99.90
2018-05-27T03:19:11.860Z,99.90
2018-05-27T03:21:38.854Z,99.90
2018-05-27T03:24:05.092Z,99.90
2018-05-27T03:26:31.323Z,99.90
2018-05-27T03:28:57.580Z,99.90
2018-05-27T03:31:23.830Z,99.90
2018-05-27T03:33:50.052Z,99.90
2018-05-27T03:36:16.303Z,99.90
2018-05-27T03:38:42.502Z,99.90
2018-05-27T03:41:08.705Z,99.90
2018-05-27T03:43:34.953Z,99.90
2018-05-27T03:46:01.193Z,99.90
2018-05-27T03:48:27.424Z,99.90
2018-05-27T03:50:53.655Z,99.90
2018-05-27T03:53:19.866Z,99.90
2018-05-27T03:55:46.101Z,99.90
2018-05-27T03:58:12.497Z,99.90
2018-05-27T04:00:38.706Z,99.90
2018-05-27T04:03:04.957Z,99.90
2018-05-27T04:05:43.373Z,99.90
2018-05-27T04:08:21.667Z,99.90
2018-05-27T04:10:47.899Z,99.90
2018-05-27T04:13:14.860Z,99.90
2018-05-27T04:15:41.074Z,99.90
2018-05-27T04:18:07.469Z,99.90
2018-05-27T04:20:33.691Z,99.90
2018-05-27T04:22:59.919Z,99.90
2018-05-27T04:25:26.164Z,99.90
2018-05-27T04:27:53.118Z,99.90
2018-05-27T04:30:20.129Z,99.90
2018-05-27T04:32:46.386Z,99.90
2018-05-27T04:35:12.613Z,99.90
2018-05-27T04:37:38.820Z,99.90
2018-05-27T04:40:05.082Z,99.90
2018-05-27T04:42:31.297Z,99.90
2018-05-27T04:44:57.512Z,99.90
2018-05-27T04:47:24.047Z,99.90
2018-05-27T04:49:50.283Z,99.90
2018-05-27T04:52:16.486Z,99.90
2018-05-27T04:54:42.754Z,99.90
2018-05-27T04:57:08.992Z,99.90
2018-05-27T04:59:35.226Z,99.90
2018-05-27T05:02:01.482Z,99.90
2018-05-27T05:04:27.694Z,99.90
2018-05-27T05:06:53.923Z,99.90
2018-05-27T05:09:20.174Z,99.90
2018-05-27T05:11:46.384Z,99.90
2018-05-27T05:14:12.597Z,99.90
2018-05-27T05:16:38.835Z,99.90
2018-05-27T05:19:05.794Z,99.90
2018-05-27T05:21:32.754Z,99.90
2018-05-27T05:23:59.011Z,99.90
2018-05-27T05:26:25.246Z,99.90
2018-05-27T05:28:52.205Z,99.90
2018-05-27T05:31:18.533Z,99.90
2018-05-27T05:33:44.739Z,99.90
2018-05-27T05:36:10.950Z,99.90
2018-05-27T05:38:37.193Z,99.90
2018-05-27T05:41:03.424Z,99.90
2018-05-27T05:43:30.816Z,99.90
2018-05-27T05:45:57.209Z,99.90
2018-05-27T05:48:24.183Z,99.90
2018-05-27T05:50:51.432Z,99.90
2018-05-27T05:53:17.659Z,99.90
2018-05-27T05:55:43.885Z,99.90
2018-05-27T05:58:10.094Z,99.90
2018-05-27T06:00:36.366Z,99.90
2018-05-27T06:03:02.576Z,99.90
2018-05-27T06:05:30.439Z,99.90
2018-05-27T06:07:56.853Z,99.90
2018-05-27T06:10:23.513Z,99.90
2018-05-27T06:12:51.315Z,99.90
2018-05-27T06:15:17.564Z,99.70
2018-05-27T06:17:43.773Z,99.40
2018-05-27T06:20:10.359Z,99.10
2018-05-27T06:22:36.772Z,99.00
2018-05-27T06:25:03.756Z,98.50
2018-05-27T06:27:29.982Z,98.50
2018-05-27T06:29:57.423Z,98.20
2018-05-27T06:32:23.694Z,98.10
2018-05-27T06:34:49.940Z,97.90
2018-05-27T06:37:17.335Z,97.50
2018-05-27T06:39:43.565Z,97.50
2018-05-27T06:42:09.785Z,97.00
2018-05-27T06:44:37.347Z,96.80
2018-05-27T06:47:03.623Z,96.60
2018-05-27T06:49:29.864Z,96.20
2018-05-27T06:51:57.471Z,95.90
2018-05-27T06:54:23.869Z,95.80
2018-05-27T06:56:50.103Z,95.20
2018-05-27T06:59:16.363Z,94.60
2018-05-27T07:01:42.953Z,94.00
2018-05-27T07:04:09.177Z,93.70
2018-05-27T07:06:35.430Z,93.40
2018-05-27T07:09:01.652Z,93.00
2018-05-27T07:11:27.867Z,92.20
2018-05-27T07:13:54.113Z,91.80
2018-05-27T07:16:20.331Z,91.90
2018-05-27T07:18:46.586Z,91.40
2018-05-27T07:21:13.216Z,91.00
2018-05-27T07:23:39.487Z,90.90
2018-05-27T07:26:05.730Z,90.90
2018-05-27T07:28:31.976Z,90.70
2018-05-27T07:30:58.219Z,90.40
2018-05-27T07:33:24.440Z,89.60
2018-05-27T07:35:50.690Z,89.90
2018-05-27T07:38:16.903Z,89.70
2018-05-27T07:40:43.160Z,89.30
2018-05-27T07:43:09.382Z,88.90
2018-05-27T07:45:35.629Z,88.10
2018-05-27T07:48:01.877Z,87.50
2018-05-27T07:50:28.289Z,87.10
2018-05-27T07:52:54.525Z,86.50
2018-05-27T07:55:21.477Z,84.70
2018-05-27T07:57:48.438Z,83.90
2018-05-27T08:00:14.659Z,83.80
2018-05-27T08:02:40.879Z,84.00
2018-05-27T08:05:07.139Z,83.10
2018-05-27T08:07:33.369Z,82.40
2018-05-27T08:09:59.582Z,81.90
2018-05-27T08:12:25.839Z,82.10
2018-05-27T08:14:52.054Z,81.80
2018-05-27T08:17:18.274Z,81.90
2018-05-27T08:19:44.656Z,81.10
2018-05-27T08:22:10.839Z,80.40
2018-05-27T08:24:37.071Z,80.40
2018-05-27T08:27:03.342Z,79.50
2018-05-27T08:29:30.365Z,76.90
2018-05-27T08:31:56.583Z,76.90
2018-05-27T08:34:22.891Z,76.50
2018-05-27T08:36:49.122Z,76.20
2018-05-27T08:39:15.333Z,75.90
2018-05-27T08:41:41.586Z,75.20
2018-05-27T08:44:08.547Z,74.30
2018-05-27T08:46:35.501Z,74.00
2018-05-27T08:49:02.498Z,73.40
2018-05-27T08:51:28.714Z,73.40
2018-05-27T08:53:55.682Z,71.90
2018-05-27T08:56:21.931Z,71.90
2018-05-27T08:58:48.154Z,71.70
2018-05-27T09:01:14.436Z,71.40
2018-05-27T09:03:41.433Z,70.80
2018-05-27T09:06:07.617Z,70.80
2018-05-27T09:08:33.854Z,70.30
2018-05-27T09:11:00.130Z,69.60
2018-05-27T09:13:26.365Z,69.40
2018-05-27T09:15:52.575Z,70.20
2018-05-27T09:18:18.834Z,68.80
2018-05-27T09:20:45.055Z,68.10
2018-05-27T09:23:11.264Z,67.60
2018-05-27T09:25:38.250Z,64.30
2018-05-27T09:28:04.477Z,64.30
2018-05-27T09:30:30.728Z,64.10
2018-05-27T09:32:56.989Z,63.70
2018-05-27T09:35:23.229Z,63.20
2018-05-27T09:37:49.458Z,63.40
2018-05-27T09:40:15.710Z,63.90
2018-05-27T09:42:41.936Z,63.30
2018-05-27T09:45:08.179Z,62.50
2018-05-27T09:47:34.449Z,61.90
2018-05-27T09:50:00.696Z,60.90
2018-05-27T09:52:26.941Z,60.30
2018-05-27T09:54:53.329Z,60.90
2018-05-27T09:57:19.579Z,60.50
2018-05-27T09:59:45.811Z,58.80
2018-05-27T10:02:12.066Z,58.50
2018-05-27T10:04:39.053Z,56.40
2018-05-27T10:07:05.284Z,55.70
2018-05-27T10:09:31.543Z,55.80
2018-05-27T10:11:57.769Z,55.80
2018-05-27T10:14:23.973Z,55.80
2018-05-27T10:16:50.431Z,56.50
2018-05-27T10:19:16.641Z,56.20
2018-05-27T10:21:42.867Z,55.40
2018-05-27T10:24:09.127Z,53.90
2018-05-27T10:26:36.127Z,53.40
2018-05-27T10:29:02.379Z,53.40
2018-05-27T10:31:28.641Z,53.60
2018-05-27T10:33:54.882Z,52.70
2018-05-27T10:36:21.104Z,51.40
2018-05-27T10:38:47.357Z,50.80
2018-05-27T10:41:13.567Z,50.60
2018-05-27T10:43:39.807Z,49.20
2018-05-27T10:46:06.055Z,49.30
2018-05-27T10:48:32.277Z,49.80
2018-05-27T10:50:58.575Z,49.80
2018-05-27T10:53:24.805Z,49.50
2018-05-27T10:55:51.019Z,48.90
2018-05-27T10:58:17.246Z,48.50
2018-05-27T11:00:43.569Z,48.00
2018-05-27T11:03:09.799Z,48.00
2018-05-27T11:05:36.817Z,48.20
2018-05-27T11:08:03.097Z,48.30
2018-05-27T11:10:29.489Z,48.80
2018-05-27T11:12:55.745Z,50.00
2018-05-27T11:15:22.179Z,49.20
2018-05-27T11:17:48.397Z,49.00
2018-05-27T11:20:14.619Z,48.70
2018-05-27T11:22:40.855Z,48.40
2018-05-27T11:25:07.149Z,48.00
2018-05-27T11:27:33.421Z,47.00
2018-05-27T11:30:00.482Z,45.70
2018-05-27T11:32:26.771Z,45.50
2018-05-27T11:34:54.103Z,42.90
2018-05-27T11:37:20.386Z,43.40
2018-05-27T11:39:46.663Z,43.20
2018-05-27T11:42:12.902Z,43.50
2018-05-27T11:44:39.147Z,42.90
2018-05-27T11:47:06.120Z,42.50
2018-05-27T11:49:32.392Z,42.30
2018-05-27T11:51:58.654Z,42.40
2018-05-27T11:54:24.892Z,41.80
2018-05-27T11:56:51.127Z,41.00
2018-05-27T11:59:17.379Z,40.20
2018-05-27T12:01:43.601Z,39.70
2018-05-27T12:04:09.810Z,40.10
2018-05-27T12:06:36.997Z,39.80
2018-05-27T12:09:03.330Z,39.70
2018-05-27T12:11:30.248Z,39.60
2018-05-27T12:13:56.905Z,39.60
2018-05-27T12:16:23.885Z,39.50
2018-05-27T12:18:50.277Z,39.30
2018-05-27T12:21:16.532Z,39.70
2018-05-27T12:23:42.731Z,39.90
2018-05-27T12:26:08.949Z,39.60
2018-05-27T12:28:35.283Z,38.40
2018-05-27T12:31:02.293Z,37.50
2018-05-27T12:33:28.525Z,37.50
2018-05-27T12:35:54.775Z,37.50
2018-05-27T12:38:20.985Z,37.80
2018-05-27T12:40:47.207Z,38.20
2018-05-27T12:43:13.443Z,37.70
2018-05-27T12:45:40.397Z,36.30
2018-05-27T12:48:06.625Z,36.20
2018-05-27T12:50:32.871Z,34.70
2018-05-27T12:52:59.088Z,34.30
2018-05-27T12:55:25.313Z,33.70
2018-05-27T12:57:51.583Z,34.00
2018-05-27T13:00:17.817Z,34.90
2018-05-27T13:02:44.024Z,35.50
2018-05-27T13:05:10.265Z,36.40
2018-05-27T13:07:36.710Z,37.50
2018-05-27T13:10:02.975Z,36.80
2018-05-27T13:12:29.225Z,36.20
2018-05-27T13:14:55.451Z,35.70
2018-05-27T13:17:21.653Z,35.00
2018-05-27T13:19:48.977Z,32.80
2018-05-27T13:22:15.205Z,33.30
2018-05-27T13:24:41.426Z,33.10
2018-05-27T13:27:07.669Z,32.90
2018-05-27T13:29:33.919Z,32.70
2018-05-27T13:32:00.125Z,32.80
2018-05-27T13:34:26.392Z,32.80
2018-05-27T13:36:52.608Z,32.90
2018-05-27T13:39:18.829Z,33.20
2018-05-27T13:41:45.077Z,33.30
2018-05-27T13:44:11.316Z,33.20
2018-05-27T13:46:37.545Z,33.30
2018-05-27T13:49:04.543Z,32.90
2018-05-27T13:51:30.769Z,32.90
2018-05-27T13:53:57.003Z,33.10
2018-05-27T13:56:23.257Z,32.50
2018-05-27T13:58:49.475Z,32.30
2018-05-27T14:01:15.692Z,32.80
2018-05-27T14:03:41.963Z,31.70
2018-05-27T14:06:08.198Z,31.60
2018-05-27T14:08:41.601Z,31.70
2018-05-27T14:11:07.863Z,32.50
2018-05-27T14:13:34.860Z,31.80
2018-05-27T14:16:01.076Z,31.80
2018-05-27T14:18:27.352Z,31.60
2018-05-27T14:20:53.567Z,31.30
2018-05-27T14:23:19.792Z,31.00
2018-05-27T14:25:46.039Z,31.20
2018-05-27T14:28:12.266Z,31.60
2018-05-27T14:30:38.688Z,32.30
2018-05-27T14:33:04.922Z,32.80
2018-05-27T14:35:31.150Z,33.20
2018-05-27T14:37:58.122Z,34.40
2018-05-27T14:40:25.112Z,35.20
2018-05-27T14:42:51.381Z,35.20
2018-05-27T14:45:17.596Z,35.70
2018-05-27T14:47:43.838Z,36.60
2018-05-27T14:50:10.074Z,37.50
2018-05-27T14:52:36.277Z,37.80
2018-05-27T14:55:03.286Z,38.50
2018-05-27T14:57:29.486Z,38.50
2018-05-27T14:59:55.716Z,39.70
2018-05-27T15:02:22.720Z,39.90
2018-05-27T15:04:48.955Z,39.90
2018-05-27T15:07:15.201Z,39.40
2018-05-27T15:09:41.780Z,39.80
2018-05-27T15:12:08.009Z,40.80
2018-05-27T15:14:34.272Z,40.80
2018-05-27T15:17:00.514Z,40.50
2018-05-27T15:19:26.756Z,40.70
2018-05-27T15:21:53.006Z,41.60
2018-05-27T15:24:19.951Z,42.30
2018-05-27T15:26:46.240Z,42.10
2018-05-27T15:29:12.485Z,43.80
2018-05-27T15:31:38.753Z,43.80
2018-05-27T15:34:05.002Z,42.70
2018-05-27T15:36:31.227Z,41.60
2018-05-27T15:38:57.441Z,41.60
2018-05-27T15:41:23.669Z,41.40
2018-05-27T15:43:49.881Z,41.70
2018-05-27T15:46:17.039Z,42.20
2018-05-27T15:48:43.285Z,42.20
2018-05-27T15:51:10.260Z,42.60
2018-05-27T15:53:36.513Z,42.50
2018-05-27T15:56:02.763Z,42.40
2018-05-27T15:58:28.990Z,43.80
2018-05-27T16:00:55.211Z,44.40
2018-05-27T16:03:22.180Z,46.90
2018-05-27T16:05:49.148Z,47.70
2018-05-27T16:08:15.360Z,47.70
2018-05-27T16:10:41.825Z,48.30
2018-05-27T16:13:08.044Z,48.40
2018-05-27T16:15:34.257Z,47.60
2018-05-27T16:18:01.263Z,47.20
2018-05-27T16:20:28.234Z,48.60
2018-05-27T16:22:54.533Z,48.50
2018-05-27T16:25:20.771Z,49.30
2018-05-27T16:27:46.972Z,49.30
2018-05-27T16:30:13.244Z,49.30
2018-05-27T16:32:39.454Z,49.90
2018-05-27T16:35:05.697Z,50.20
2018-05-27T16:37:31.920Z,51.10
2018-05-27T16:39:58.142Z,50.80
2018-05-27T16:42:24.388Z,51.20
2018-05-27T16:44:50.623Z,51.60
2018-05-27T16:47:16.876Z,52.10
2018-05-27T16:49:43.107Z,52.80
2018-05-27T16:52:09.310Z,53.20
2018-05-27T16:54:35.556Z,53.90
2018-05-27T16:57:01.888Z,53.30
2018-05-27T16:59:28.927Z,52.90
2018-05-27T17:01:55.706Z,52.80
2018-05-27T17:04:22.101Z,53.70
2018-05-27T17:06:48.328Z,53.90
2018-05-27T17:09:14.530Z,53.10
2018-05-27T17:11:40.796Z,52.90
2018-05-27T17:14:07.079Z,52.60
2018-05-27T17:16:33.288Z,52.60
2018-05-27T17:19:00.280Z,52.20
2018-05-27T17:21:26.512Z,52.10
2018-05-27T17:23:52.756Z,52.90
2018-05-27T17:26:19.730Z,56.40
2018-05-27T17:28:45.967Z,56.40
2018-05-27T17:31:12.229Z,56.50
2018-05-27T17:33:38.463Z,56.40
2018-05-27T17:36:04.785Z,56.80
2018-05-27T17:38:30.973Z,56.80
2018-05-27T17:40:57.935Z,57.50
2018-05-27T17:43:24.894Z,58.40
2018-05-27T17:45:51.855Z,58.80
2018-05-27T17:48:18.836Z,58.80
2018-05-27T17:50:45.041Z,58.80
2018-05-27T17:53:11.314Z,59.00
2018-05-27T17:55:37.530Z,59.70
2018-05-27T17:58:04.543Z,59.90
2018-05-27T18:00:30.946Z,59.90
2018-05-27T18:02:57.174Z,60.00
2018-05-27T18:05:24.125Z,60.50
2018-05-27T18:07:51.113Z,61.00
2018-05-27T18:10:17.379Z,61.00
2018-05-27T18:12:43.819Z,61.50
2018-05-27T18:15:10.051Z,62.00
2018-05-27T18:17:36.285Z,62.50
2018-05-27T18:20:02.554Z,62.50
2018-05-27T18:22:28.785Z,62.70
2018-05-27T18:24:55.063Z,62.70
2018-05-27T18:27:21.287Z,62.60
2018-05-27T18:29:47.527Z,62.40
2018-05-27T18:32:13.767Z,62.70
2018-05-27T18:34:39.987Z,63.30
2018-05-27T18:37:06.255Z,63.50
2018-05-27T18:39:32.500Z,63.70
2018-05-27T18:41:58.742Z,63.80
2018-05-27T18:44:25.007Z,64.00
2018-05-27T18:46:51.984Z,63.70
2018-05-27T18:49:18.234Z,63.70
2018-05-27T18:51:44.465Z,63.70
2018-05-27T18:54:10.728Z,63.40
2018-05-27T18:56:36.984Z,63.40
2018-05-27T18:59:03.270Z,63.50
2018-05-27T19:01:30.298Z,63.70
2018-05-27T19:03:57.073Z,63.70
2018-05-27T19:06:24.040Z,64.60
2018-05-27T19:08:51.085Z,64.50
2018-05-27T19:11:18.094Z,64.80
2018-05-27T19:13:44.557Z,64.70
2018-05-27T19:16:10.804Z,65.10
2018-05-27T19:18:37.040Z,65.30
2018-05-27T19:21:03.354Z,65.80
2018-05-27T19:23:29.623Z,66.00
2018-05-27T19:25:55.928Z,66.20
2018-05-27T19:28:22.208Z,66.50
2018-05-27T19:30:48.966Z,66.30
2018-05-27T19:33:15.445Z,66.50
2018-05-27T19:35:42.451Z,67.00
2018-05-27T19:38:08.746Z,67.00
2018-05-27T19:40:35.010Z,66.90
2018-05-27T19:43:01.341Z,67.00
2018-05-27T19:45:27.690Z,67.00
2018-05-27T19:47:53.956Z,67.10
2018-05-27T19:50:20.331Z,67.40
2018-05-27T19:52:46.579Z,68.30
2018-05-27T19:55:12.838Z,69.70
2018-05-27T19:57:39.121Z,70.40
2018-05-27T20:00:05.422Z,70.40
2018-05-27T20:02:32.620Z,70.40
2018-05-27T20:04:58.872Z,70.40
2018-05-27T20:07:25.107Z,69.80
2018-05-27T20:09:51.409Z,69.70
2018-05-27T20:12:17.611Z,70.50
2018-05-27T20:14:43.923Z,72.40
2018-05-27T20:17:10.189Z,72.80
2018-05-27T20:19:36.410Z,72.60
2018-05-27T20:22:03.425Z,71.50
2018-05-27T20:24:30.411Z,71.20
2018-05-27T20:26:56.653Z,71.20
2018-05-27T20:29:22.885Z,70.70
2018-05-27T20:31:49.233Z,70.60
2018-05-27T20:34:15.479Z,70.70
2018-05-27T20:36:41.712Z,71.60
2018-05-27T20:39:07.976Z,72.80
2018-05-27T20:41:34.219Z,73.90
2018-05-27T20:44:00.474Z,74.70
2018-05-27T20:46:26.724Z,75.40
2018-05-27T20:48:52.960Z,76.20
2018-05-27T20:51:19.170Z,76.70
2018-05-27T20:53:45.452Z,77.10
2018-05-27T20:56:11.674Z,78.20
2018-05-27T20:58:37.884Z,78.80
2018-05-27T21:01:04.133Z,79.60
2018-05-27T21:03:30.382Z,80.30
2018-05-27T21:05:56.661Z,80.80
2018-05-27T21:08:22.902Z,81.40
2018-05-27T21:10:49.156Z,82.30
2018-05-27T21:13:16.156Z,83.30
2018-05-27T21:15:42.583Z,83.30
2018-05-27T21:18:09.678Z,84.60
2018-05-27T21:20:35.878Z,84.50
2018-05-27T21:23:02.102Z,85.10
2018-05-27T21:25:29.251Z,86.00
2018-05-27T21:27:55.486Z,86.00
2018-05-27T21:30:21.821Z,86.20
2018-05-27T21:32:48.042Z,86.60
2018-05-27T21:35:14.701Z,86.80
2018-05-27T21:37:40.935Z,87.00
2018-05-27T21:40:07.147Z,87.30
2018-05-27T21:42:33.399Z,87.50
2018-05-27T21:44:59.649Z,87.90
2018-05-27T21:47:25.849Z,88.10
2018-05-27T21:49:52.804Z,88.30
2018-05-27T21:52:19.005Z,88.20
2018-05-27T21:54:46.065Z,88.10
2018-05-27T21:57:12.329Z,88.30
2018-05-27T21:59:38.571Z,88.90
2018-05-27T22:02:05.561Z,90.20
2018-05-27T22:04:31.784Z,89.70
2018-05-27T22:06:58.019Z,90.00
2018-05-27T22:09:24.971Z,90.40
2018-05-27T22:11:51.192Z,90.40
2018-05-27T22:14:17.427Z,90.70
2018-05-27T22:16:44.021Z,90.90
2018-05-27T22:19:10.253Z,91.10
2018-05-27T22:21:37.187Z,91.30
2018-05-27T22:24:03.436Z,91.30
2018-05-27T22:26:30.431Z,91.50
2018-05-27T22:28:56.652Z,91.50
2018-05-27T22:31:22.979Z,91.70
2018-05-27T22:33:49.193Z,91.70
2018-05-27T22:36:15.965Z,91.90
2018-05-27T22:38:42.179Z,92.00
2018-05-27T22:41:08.389Z,92.10
2018-05-27T22:43:34.642Z,92.20
2018-05-27T22:46:00.859Z,92.00
2018-05-27T22:48:27.076Z,91.80
2018-05-27T22:50:54.052Z,91.60
2018-05-27T22:53:21.008Z,91.60
2018-05-27T22:55:47.984Z,91.80
2018-05-27T22:58:14.197Z,91.80
2018-05-27T23:00:41.397Z,91.80
2018-05-27T23:03:07.610Z,91.80
2018-05-27T23:05:33.800Z,91.80
2018-05-27T23:08:00.198Z,91.80
2018-05-27T23:10:26.431Z,91.90
2018-05-27T23:12:52.650Z,92.10
2018-05-27T23:15:18.867Z,92.10
2018-05-27T23:17:45.076Z,92.20
2018-05-27T23:20:11.348Z,92.20
2018-05-27T23:22:37.567Z,92.30
2018-05-27T23:25:03.772Z,92.50
2018-05-27T23:27:30.022Z,92.60
2018-05-27T23:29:56.293Z,92.60
2018-05-27T23:32:22.546Z,92.80
2018-05-27T23:34:48.811Z,92.80
2018-05-27T23:37:15.019Z,92.80
2018-05-27T23:39:41.268Z,92.90
2018-05-27T23:42:07.478Z,92.90
2018-05-27T23:44:33.705Z,93.00
2018-05-27T23:46:59.946Z,93.10
2018-05-27T23:49:26.147Z,93.20
2018-05-27T23:51:52.393Z,93.30
2018-05-27T23:54:18.633Z,93.30
2018-05-27T23:56:44.852Z,93.30
2018-05-27T23:59:11.099Z,93.30
